Terminal Aerodrome Forecast
Issued by NWS

Current Version | Previous Version | Text Only | Print | Product List | Glossary Off
Versions: 1 2 3 4 5 6 7 8 9 10 11 12

000
FTUS44 KSJT 271700
TAFSOA
TAF
KSOA 271737Z 2718/2818 13006KT P6SM SKC
     FM280100 16004KT P6SM SKC
      TEMPO 2810/2812 SCT015
     FM281200 18006KT P6SM SCT015
      TEMPO 2812/2816 BKN012
     FM281600 19010KT P6SM SCT015=

USA.gov is the U.S. government's official web portal to all federal, state and local government web resources and services.